createdAt,value
2019-03-04T00:00:41.218Z,-1.8
2019-03-04T00:01:31.593Z,-1.8
2019-03-04T00:02:21.633Z,-1.8
2019-03-04T00:03:11.970Z,-1.9
2019-03-04T00:04:01.735Z,-1.9
2019-03-04T00:04:51.526Z,-1.9
2019-03-04T00:05:41.856Z,-1.8
2019-03-04T00:06:31.916Z,-1.9
2019-03-04T00:07:21.706Z,-1.9
2019-03-04T00:08:12.027Z,-1.9
2019-03-04T00:09:02.366Z,-1.9
2019-03-04T00:09:52.451Z,-1.9
2019-03-04T00:10:41.743Z,-1.9
2019-03-04T00:11:31.799Z,-1.9
2019-03-04T00:12:21.841Z,-1.9
2019-03-04T00:13:11.676Z,-1.9
2019-03-04T00:14:01.971Z,-1.9
2019-03-04T00:14:52.509Z,-1.9
2019-03-04T00:15:42.019Z,-1.9
2019-03-04T00:16:32.628Z,-1.9
2019-03-04T00:17:22.699Z,-1.9
2019-03-04T00:18:13.016Z,-2
2019-03-04T00:19:02.803Z,-2
2019-03-04T00:19:53.135Z,-2
2019-03-04T00:20:42.926Z,-2
2019-03-04T00:21:32.978Z,-2
2019-03-04T00:22:23.315Z,-2
2019-03-04T00:23:13.142Z,-2
2019-03-04T00:24:02.900Z,-2
2019-03-04T00:24:53.215Z,-2
2019-03-04T00:25:43.541Z,-2
2019-03-04T00:26:33.619Z,-2.1
2019-03-04T00:27:23.431Z,-2.1
2019-03-04T00:28:13.445Z,-2
2019-03-04T00:29:03.510Z,-2.1
2019-03-04T00:29:53.845Z,-2.1
2019-03-04T00:30:43.620Z,-2.1
2019-03-04T00:31:33.687Z,-2.1
2019-03-04T00:32:24.015Z,-2.1
2019-03-04T00:33:13.257Z,-2.1
2019-03-04T00:34:03.587Z,-2.1
2019-03-04T00:34:53.653Z,-2.1
2019-03-04T00:35:43.967Z,-2.1
2019-03-04T00:36:33.475Z,-2.1
2019-03-04T00:37:23.808Z,-2.2
2019-03-04T00:38:14.145Z,-2.2
2019-03-04T00:39:04.209Z,-2.2
2019-03-04T00:39:54.265Z,-2.2
2019-03-04T00:40:44.597Z,-2.2
2019-03-04T00:41:34.700Z,-2.3
2019-03-04T00:42:24.717Z,-2.3
2019-03-04T00:43:14.509Z,-2.3
2019-03-04T00:44:04.277Z,-2.3
2019-03-04T00:44:54.367Z,-2.3
2019-03-04T00:45:44.707Z,-2.3
2019-03-04T00:46:34.742Z,-2.3
2019-03-04T00:47:24.530Z,-2.3
2019-03-04T00:48:15.160Z,-2.3
2019-03-04T00:49:04.641Z,-2.3
2019-03-04T00:49:56.968Z,-2.3
2019-03-04T00:50:45.305Z,-2.3
2019-03-04T00:51:35.374Z,-2.3
2019-03-04T00:52:25.164Z,-2.4
2019-03-04T00:53:15.481Z,-2.4
2019-03-04T00:54:05.592Z,-2.4
2019-03-04T00:54:55.613Z,-2.4
2019-03-04T00:55:45.649Z,-2.4
2019-03-04T00:56:35.448Z,-2.4
2019-03-04T00:57:25.509Z,-2.4
2019-03-04T00:58:15.558Z,-2.4
2019-03-04T00:59:05.606Z,-2.4
2019-03-04T00:59:55.396Z,-2.4
2019-03-04T01:00:46.009Z,-2.4
2019-03-04T01:01:35.240Z,-2.4
2019-03-04T01:02:25.563Z,-2.4
2019-03-04T01:03:15.973Z,-2.4
2019-03-04T01:04:05.968Z,-2.4
2019-03-04T01:04:55.760Z,-2.4
2019-03-04T01:05:46.358Z,-2.4
2019-03-04T01:06:36.422Z,-2.4
2019-03-04T01:07:26.205Z,-2.4
2019-03-04T01:08:16.261Z,-2.4
2019-03-04T01:09:06.042Z,-2.4
2019-03-04T01:09:56.110Z,-2.4
2019-03-04T01:10:46.762Z,-2.5
2019-03-04T01:11:36.780Z,-2.4
2019-03-04T01:12:26.823Z,-2.5
2019-03-04T01:13:16.892Z,-2.5
2019-03-04T01:14:06.142Z,-2.5
2019-03-04T01:14:57.009Z,-2.5
2019-03-04T01:15:46.575Z,-2.5
2019-03-04T01:16:37.111Z,-2.5
2019-03-04T01:17:26.901Z,-2.5
2019-03-04T01:18:17.244Z,-2.5
2019-03-04T01:19:07.302Z,-2.5
2019-03-04T01:19:57.078Z,-2.5
2019-03-04T01:20:47.403Z,-2.5
2019-03-04T01:21:37.207Z,-2.6
2019-03-04T01:22:27.535Z,-2.5
2019-03-04T01:23:17.047Z,-2.6
2019-03-04T01:24:06.844Z,-2.6
2019-03-04T01:24:57.170Z,-2.6
2019-03-04T01:25:47.820Z,-2.6
2019-03-04T01:26:37.824Z,-2.6
2019-03-04T01:27:27.880Z,-2.6
2019-03-04T01:28:17.400Z,-2.6
2019-03-04T01:29:07.741Z,-2.6
2019-03-04T01:29:58.115Z,-2.7
2019-03-04T01:30:48.126Z,-2.7
2019-03-04T01:31:38.204Z,-2.7
2019-03-04T01:32:27.959Z,-2.7
2019-03-04T01:33:17.731Z,-2.7
2019-03-04T01:34:08.393Z,-2.7
2019-03-04T01:34:57.864Z,-2.8
2019-03-04T01:35:48.461Z,-2.7
2019-03-04T01:36:38.254Z,-2.7
2019-03-04T01:37:28.038Z,-2.8
2019-03-04T01:38:18.389Z,-2.8
2019-03-04T01:39:08.424Z,-2.8
2019-03-04T01:39:58.486Z,-2.8
2019-03-04T01:40:48.828Z,-2.8
2019-03-04T01:41:38.601Z,-2.8
2019-03-04T01:42:28.951Z,-2.8
2019-03-04T01:43:18.760Z,-2.8
2019-03-04T01:44:09.068Z,-2.8
2019-03-04T01:44:58.564Z,-2.8
2019-03-04T01:45:48.903Z,-2.8
2019-03-04T01:46:39.244Z,-2.8
2019-03-04T01:47:29.018Z,-2.8
2019-03-04T01:48:19.411Z,-2.8
2019-03-04T01:49:08.861Z,-2.8
2019-03-04T01:49:58.926Z,-2.8
2019-03-04T01:50:49.248Z,-2.8
2019-03-04T01:51:39.608Z,-2.8
2019-03-04T01:52:29.448Z,-2.8
2019-03-04T01:53:19.933Z,-2.8
2019-03-04T01:54:09.210Z,-2.8
2019-03-04T01:54:59.823Z,-2.8
2019-03-04T01:55:49.863Z,-2.8
2019-03-04T01:56:39.698Z,-2.8
2019-03-04T01:57:30.000Z,-2.8
2019-03-04T01:58:19.788Z,-2.8
2019-03-04T01:59:09.841Z,-2.8
2019-03-04T01:59:59.628Z,-2.8
2019-03-04T02:00:50.230Z,-2.8
2019-03-04T02:01:39.750Z,-2.8
2019-03-04T02:02:30.348Z,-2.8
2019-03-04T02:03:19.903Z,-2.8
2019-03-04T02:04:09.624Z,-2.8
2019-03-04T02:05:00.513Z,-2.8
2019-03-04T02:05:50.305Z,-2.9
2019-03-04T02:06:40.085Z,-2.8
2019-03-04T02:07:30.703Z,-2.9
2019-03-04T02:08:20.218Z,-2.8
2019-03-04T02:09:10.840Z,-2.9
2019-03-04T02:10:00.858Z,-2.9
2019-03-04T02:10:50.926Z,-2.9
2019-03-04T02:11:40.992Z,-2.9
2019-03-04T02:12:31.058Z,-2.9
2019-03-04T02:13:20.541Z,-2.9
2019-03-04T02:14:11.219Z,-2.9
2019-03-04T02:15:01.327Z,-2.9
2019-03-04T02:15:51.027Z,-2.9
2019-03-04T02:16:41.070Z,-2.9
2019-03-04T02:17:30.311Z,-2.9
2019-03-04T02:18:21.189Z,-2.9
2019-03-04T02:19:11.269Z,-2.9
2019-03-04T02:20:01.199Z,-3
2019-03-04T02:20:51.371Z,-3
2019-03-04T02:21:41.137Z,-3
2019-03-04T02:22:31.484Z,-3
2019-03-04T02:23:21.267Z,-3
2019-03-04T02:24:11.379Z,-3
2019-03-04T02:25:01.927Z,-3.1
2019-03-04T02:25:51.716Z,-3.1
2019-03-04T02:26:41.758Z,-3.1
2019-03-04T02:27:31.872Z,-3.1
2019-03-04T02:28:21.889Z,-3.1
2019-03-04T02:29:11.946Z,-3.1
2019-03-04T02:30:02.391Z,-3.1
2019-03-04T02:30:52.362Z,-3.1
2019-03-04T02:31:42.424Z,-3.2
2019-03-04T02:32:31.947Z,-3.2
2019-03-04T02:33:22.336Z,-3.2
2019-03-04T02:34:12.625Z,-3.2
2019-03-04T02:35:02.298Z,-3.3
2019-03-04T02:35:51.626Z,-3.3
2019-03-04T02:36:42.479Z,-3.3
2019-03-04T02:37:32.853Z,-3.3
2019-03-04T02:38:22.881Z,-3.3
2019-03-04T02:39:12.424Z,-3.3
2019-03-04T02:40:02.758Z,-3.3
2019-03-04T02:40:53.071Z,-3.3
2019-03-04T02:41:43.148Z,-3.3
2019-03-04T02:42:33.170Z,-3.4
2019-03-04T02:43:23.267Z,-3.4
2019-03-04T02:44:13.309Z,-3.4
2019-03-04T02:45:03.391Z,-3.4
2019-03-04T02:45:53.449Z,-3.4
2019-03-04T02:46:43.522Z,-3.4
2019-03-04T02:47:33.538Z,-3.4
2019-03-04T02:48:23.621Z,-3.4
2019-03-04T02:49:13.716Z,-3.4
2019-03-04T02:50:03.431Z,-3.4
2019-03-04T02:50:53.777Z,-3.4
2019-03-04T02:51:43.284Z,-3.5
2019-03-04T02:52:33.933Z,-3.5
2019-03-04T02:53:23.753Z,-3.6
2019-03-04T02:54:13.469Z,-3.6
2019-03-04T02:55:04.080Z,-3.6
2019-03-04T02:55:53.865Z,-3.6
2019-03-04T02:56:44.200Z,-3.6
2019-03-04T02:57:34.235Z,-3.6
2019-03-04T02:58:24.019Z,-3.6
2019-03-04T02:59:14.375Z,-3.6
2019-03-04T03:00:04.192Z,-3.6
2019-03-04T03:00:54.510Z,-3.6
2019-03-04T03:01:44.005Z,-3.6
2019-03-04T03:02:34.057Z,-3.6
2019-03-04T03:03:24.117Z,-3.6
2019-03-04T03:04:14.174Z,-3.7
2019-03-04T06:05:46.089Z,7.1
2019-03-04T06:06:36.415Z,8.1
2019-03-04T06:07:26.486Z,9.1
2019-03-04T06:08:16.270Z,9.8
2019-03-04T06:09:06.319Z,10.6
2019-03-04T06:09:56.373Z,11.3
2019-03-04T06:10:46.211Z,12.1
2019-03-04T06:11:36.481Z,12.8
2019-03-04T06:12:26.537Z,13.4
2019-03-04T06:13:16.613Z,14.1
2019-03-04T06:14:06.674Z,14.7
2019-03-04T06:14:57.004Z,15.4
2019-03-04T06:15:46.494Z,16
2019-03-04T06:16:46.787Z,16.6
2019-03-04T06:17:26.891Z,17.3
2019-03-04T06:18:16.941Z,17.7
2019-03-04T06:19:07.003Z,18.2
2019-03-04T06:20:47.400Z,19.3
2019-03-04T06:21:37.171Z,19.8
2019-03-04T06:22:27.231Z,20.3
2019-03-04T06:23:17.568Z,20.8
2019-03-04T06:24:07.634Z,21.3
2019-03-04T06:24:57.403Z,21.9
2019-03-04T06:25:47.827Z,22.4
2019-03-04T06:26:37.801Z,22.9
2019-03-04T06:27:27.606Z,23.3
2019-03-04T06:28:17.101Z,23.7
2019-03-04T06:29:07.431Z,24.1
2019-03-04T06:29:57.494Z,24.4
2019-03-04T06:30:50.038Z,24.8
2019-03-04T06:31:37.634Z,25.1
2019-03-04T06:32:28.236Z,25.4
2019-03-04T06:33:18.283Z,25.8
2019-03-04T06:34:08.048Z,26.1
2019-03-04T06:34:58.120Z,26.6
2019-03-04T06:35:48.166Z,26.9
2019-03-04T06:36:38.504Z,27.3
2019-03-04T06:37:28.575Z,27.8
2019-03-04T06:38:18.648Z,28.1
2019-03-04T06:39:08.135Z,28.5
2019-03-04T06:39:58.468Z,28.9
2019-03-04T06:40:48.795Z,29.4
2019-03-04T06:41:38.580Z,29.8
2019-03-04T06:42:28.647Z,30.2
2019-03-04T06:43:18.683Z,30.6
2019-03-04T06:44:08.757Z,31.1
2019-03-04T06:44:58.807Z,31.6
2019-03-04T06:45:48.870Z,32.2
2019-03-04T06:46:39.193Z,32.8
2019-03-04T06:47:29.265Z,33.4
2019-03-04T06:48:18.775Z,34.1
2019-03-04T06:49:09.095Z,34.8
2019-03-04T06:49:59.420Z,35.4
2019-03-04T06:50:49.593Z,36.1
2019-03-04T06:51:39.015Z,36.7
2019-03-04T06:52:29.334Z,37.3
2019-03-04T06:53:19.738Z,38.1
2019-03-04T06:54:09.722Z,38.8
2019-03-04T06:54:59.239Z,39.4
2019-03-04T06:55:49.564Z,40.1
2019-03-04T06:56:39.904Z,40.7
2019-03-04T06:57:31.171Z,41.4
2019-03-04T06:58:20.062Z,42.1
2019-03-04T06:59:09.526Z,42.8
2019-03-04T06:59:59.578Z,43.4
2019-03-04T07:00:50.247Z,44
2019-03-04T07:01:40.300Z,44.6
2019-03-04T07:02:30.305Z,45.3
2019-03-04T07:03:20.101Z,45.8
2019-03-04T07:05:46.034Z,47.4
2019-03-04T07:06:36.094Z,48.2
2019-03-04T07:07:26.431Z,48.8
2019-03-04T07:08:16.486Z,49.4
2019-03-04T07:09:06.275Z,50.1
2019-03-04T07:09:56.053Z,50.5
2019-03-04T07:10:46.116Z,51.1
2019-03-04T07:11:36.724Z,51.6
2019-03-04T07:12:26.498Z,52.3
2019-03-04T07:13:16.868Z,52.9
2019-03-04T07:14:06.637Z,53.4
2019-03-04T07:14:56.105Z,54
2019-03-04T07:15:46.470Z,54.6
2019-03-04T07:16:36.801Z,55.1
2019-03-04T07:17:26.851Z,55.6
2019-03-04T07:18:16.955Z,56.1
2019-03-04T07:19:06.728Z,56.6
2019-03-04T07:19:57.283Z,57.1
2019-03-04T07:20:47.078Z,57.7
2019-03-04T07:21:37.423Z,58.2
2019-03-04T07:22:27.193Z,58.7
2019-03-04T07:23:17.525Z,59.2
2019-03-04T07:24:07.390Z,59.4
2019-03-04T07:24:57.091Z,59.8
2019-03-04T07:25:47.688Z,60.3
2019-03-04T07:26:37.245Z,60.9
2019-03-04T07:27:27.315Z,61.4
2019-03-04T07:28:17.876Z,61.9
2019-03-04T07:29:07.922Z,62.4
2019-03-04T07:29:57.434Z,62.9
2019-03-04T07:30:47.762Z,63.3
2019-03-04T07:31:37.819Z,63.7
2019-03-04T07:32:27.892Z,64.1
2019-03-04T07:33:18.032Z,64.6
2019-03-04T07:34:07.458Z,64.9
2019-03-04T07:34:58.357Z,65.3
2019-03-04T07:35:48.387Z,65.8
2019-03-04T07:36:38.174Z,66.1
2019-03-04T07:37:28.519Z,62
2019-03-04T07:38:18.279Z,59.5
2019-03-04T07:39:08.624Z,56
2019-03-04T07:39:58.409Z,50.2
2019-03-04T07:40:48.469Z,46.8
2019-03-04T07:41:38.259Z,45
2019-03-04T07:42:28.309Z,44.1
2019-03-04T07:43:18.642Z,43.9
2019-03-04T07:44:08.428Z,44.3
2019-03-04T07:44:58.746Z,45
2019-03-04T07:45:49.098Z,46
2019-03-04T07:46:39.149Z,47.1
2019-03-04T07:47:28.929Z,48.4
2019-03-04T07:48:18.468Z,49.8
2019-03-04T07:49:09.049Z,51.1
2019-03-04T07:50:49.176Z,53.7
2019-03-04T07:51:39.516Z,54.9
2019-03-04T07:52:29.027Z,56.1
2019-03-04T07:53:21.328Z,57.3
2019-03-04T07:54:09.123Z,58.4
2019-03-04T07:54:59.741Z,59.4
2019-03-04T07:55:49.800Z,60.6
2019-03-04T07:56:39.850Z,61.6
2019-03-04T07:57:29.911Z,62.6
2019-03-04T07:58:19.703Z,63.6
2019-03-04T07:59:09.763Z,64.5
2019-03-04T08:00:00.079Z,65.3
2019-03-04T08:00:49.451Z,66.9
2019-03-04T08:01:39.924Z,64.3
2019-03-04T08:02:29.998Z,60.5
2019-03-04T08:03:19.778Z,58
2019-03-04T08:04:09.553Z,53.9
2019-03-04T08:05:00.426Z,51.1
2019-03-04T08:05:49.955Z,50
2019-03-04T08:06:40.018Z,49.9
2019-03-04T08:07:30.343Z,50.5
2019-03-04T08:08:20.669Z,51.6
2019-03-04T08:09:10.728Z,52.9
2019-03-04T08:09:59.468Z,54.3
2019-03-04T08:10:50.561Z,55.7
2019-03-04T08:11:40.631Z,57
2019-03-04T08:12:30.975Z,58.4
2019-03-04T08:13:20.539Z,59.9
2019-03-04T08:14:10.530Z,61.2
2019-03-04T08:15:01.260Z,62.4
2019-03-04T08:15:51.200Z,63.6
2019-03-04T08:16:41.275Z,64.8
2019-03-04T08:17:31.320Z,66.8
2019-03-04T08:18:20.826Z,65.3
2019-03-04T08:19:11.152Z,64.2
2019-03-04T08:20:01.488Z,62.6
2019-03-04T08:20:51.272Z,59.6
2019-03-04T08:21:41.107Z,56.3
2019-03-04T08:22:31.437Z,54.4
2019-03-04T08:23:21.457Z,54.8
2019-03-04T08:24:11.527Z,56.6
2019-03-04T08:25:01.850Z,58.1
2019-03-04T08:25:51.619Z,59.1
2019-03-04T08:26:41.426Z,59.2
2019-03-04T08:27:31.994Z,58.7
2019-03-04T08:28:22.096Z,57.9
2019-03-04T08:29:12.140Z,57.4
2019-03-04T08:30:02.249Z,57.5
2019-03-04T08:30:51.984Z,57.9
2019-03-04T08:31:42.036Z,58.4
2019-03-04T08:32:32.146Z,58.8
2019-03-04T08:33:22.047Z,59
2019-03-04T08:34:12.476Z,59.1
2019-03-04T08:35:02.242Z,58.8
2019-03-04T08:35:52.624Z,58.8
2019-03-04T08:36:42.659Z,59.1
2019-03-04T08:37:32.713Z,59.4
2019-03-04T08:38:22.501Z,59.8
2019-03-04T08:39:12.273Z,60.1
2019-03-04T08:40:02.636Z,60.4
2019-03-04T08:40:52.666Z,60.6
2019-03-04T08:41:42.737Z,60.6
2019-03-04T08:42:32.798Z,60.7
2019-03-04T08:43:22.569Z,60.9
2019-03-04T08:44:13.167Z,61.1
2019-03-04T08:45:03.285Z,61.4
2019-03-04T08:45:53.025Z,61.6
2019-03-04T08:46:43.371Z,61.7
2019-03-04T08:47:33.158Z,61.9
2019-03-04T08:48:23.510Z,62
2019-03-04T08:49:13.545Z,62.3
2019-03-04T08:50:03.621Z,62.3
2019-03-04T08:50:53.668Z,62.3
2019-03-04T08:51:43.446Z,62.4
2019-03-04T08:52:33.233Z,62.7
2019-03-04T08:53:23.257Z,62.9
2019-03-04T08:54:13.918Z,63.2
2019-03-04T08:55:03.445Z,63.4
2019-03-04T08:55:54.044Z,63.5
2019-03-04T08:56:43.505Z,63.6
2019-03-04T08:57:33.081Z,63.9
2019-03-04T08:58:23.395Z,63.9
2019-03-04T08:59:14.230Z,63.9
2019-03-04T09:00:03.804Z,64.1
2019-03-04T09:00:54.343Z,64.3
2019-03-04T09:01:44.408Z,64.4
2019-03-04T09:02:33.985Z,64.8
2019-03-04T09:03:24.329Z,64.9
2019-03-04T09:04:13.828Z,65.1
2019-03-04T09:05:03.894Z,65.4
2019-03-04T09:05:53.667Z,65.6
2019-03-04T09:06:44.276Z,65.9
2019-03-04T09:07:34.831Z,66.1
2019-03-04T09:08:24.420Z,65.9
2019-03-04T09:09:14.657Z,65.9
2019-03-04T09:10:04.729Z,66
2019-03-04T09:10:54.028Z,66.3
2019-03-04T09:11:44.639Z,66.4
2019-03-04T09:12:36.464Z,66.6
2019-03-04T09:13:24.739Z,66.6
2019-03-04T09:14:14.535Z,66.6
2019-03-04T09:15:04.614Z,66.8
2019-03-04T09:15:54.662Z,66.9
2019-03-04T09:16:44.423Z,67.2
2019-03-04T09:17:34.752Z,67.3
2019-03-04T09:18:24.825Z,67.4
2019-03-04T09:19:15.146Z,67.4
2019-03-04T09:20:05.214Z,67.6
2019-03-04T09:20:54.767Z,67.7
2019-03-04T09:21:45.322Z,67.8
2019-03-04T09:22:35.404Z,67.9
2019-03-04T09:23:25.449Z,67.9
2019-03-04T09:24:15.276Z,68
2019-03-04T09:25:05.032Z,68.1
2019-03-04T09:25:55.355Z,68.3
2019-03-04T09:26:45.134Z,68.3
2019-03-04T09:27:35.946Z,68.2
2019-03-04T09:28:25.791Z,68.4
2019-03-04T09:29:15.586Z,68.7
2019-03-04T09:30:05.366Z,68.9
2019-03-04T09:30:55.972Z,68.9
2019-03-04T09:31:46.510Z,69
2019-03-04T09:32:35.772Z,69.1
2019-03-04T09:33:26.376Z,69.3
2019-03-04T09:34:16.418Z,69.4
2019-03-04T09:35:06.473Z,69.6
2019-03-04T09:35:56.813Z,69.8
2019-03-04T09:36:46.613Z,69.9
2019-03-04T09:37:36.648Z,70.1
2019-03-04T09:38:26.696Z,70.3
2019-03-04T09:39:16.755Z,70.4
2019-03-04T09:40:07.095Z,70.4
2019-03-04T09:40:56.880Z,70.5
2019-03-04T09:41:47.218Z,70.6
2019-03-04T09:42:37.264Z,70.8
2019-03-04T09:43:26.785Z,70.7
2019-03-04T09:44:16.833Z,70.8
2019-03-04T09:45:06.962Z,70.8
2019-03-04T09:45:57.221Z,70.9
2019-03-04T09:46:47.557Z,70.9
2019-03-04T09:47:37.350Z,70.9
2019-03-04T09:48:27.680Z,71.1
2019-03-04T09:49:17.753Z,71.3
2019-03-04T09:50:07.530Z,71.4
2019-03-04T09:50:57.578Z,71.6
2019-03-04T09:51:47.954Z,71.6
2019-03-04T09:52:37.715Z,71.6
2019-03-04T09:53:27.757Z,71.6
2019-03-04T09:54:17.815Z,71.6
2019-03-04T09:55:08.182Z,71.6
2019-03-04T09:55:58.195Z,71.5
2019-03-04T09:56:47.820Z,71.6
2019-03-04T09:57:38.069Z,71.7
2019-03-04T09:58:28.145Z,71.9
2019-03-04T09:59:18.157Z,72.1
2019-03-04T10:00:08.490Z,72.3
2019-03-04T10:00:58.542Z,72.4
2019-03-04T10:01:48.340Z,72.5
2019-03-04T10:02:38.725Z,72.4
2019-03-04T10:03:28.441Z,72.3
2019-03-04T10:04:18.787Z,72.3
2019-03-04T10:06:46.147Z,71.7
2019-03-04T10:07:36.216Z,71.7
2019-03-04T10:08:35.056Z,71.9
2019-03-04T10:09:16.346Z,72.1
2019-03-04T10:10:05.898Z,72.1
2019-03-04T10:10:55.904Z,72.2
2019-03-04T10:11:46.498Z,72.2
2019-03-04T10:12:36.560Z,72.2
2019-03-04T10:13:26.628Z,72.4
2019-03-04T10:14:16.461Z,72.5
2019-03-04T10:15:10.641Z,72.2
2019-03-04T10:15:56.257Z,72.2
2019-03-04T10:16:46.847Z,72.2
2019-03-04T10:17:36.371Z,72
2019-03-04T10:18:26.993Z,71.9
2019-03-04T10:19:16.473Z,71.8
2019-03-04T10:20:06.531Z,71.8
2019-03-04T10:20:56.861Z,71.9
2019-03-04T10:21:46.935Z,72.2
2019-03-04T10:22:36.991Z,72.1
2019-03-04T10:23:26.778Z,72.3
2019-03-04T10:24:16.835Z,72.4
2019-03-04T10:25:07.164Z,72.4
2019-03-04T10:25:56.665Z,72.4
2019-03-04T10:26:47.566Z,72.1
2019-03-04T10:27:37.050Z,71.8
2019-03-04T10:28:27.118Z,71.8
2019-03-04T10:29:17.450Z,71.5
2019-03-04T10:30:07.245Z,71.4
2019-03-04T10:30:57.883Z,71.3
2019-03-04T10:31:47.906Z,71.3
2019-03-04T10:32:37.680Z,71.1
2019-03-04T10:33:28.065Z,70.7
2019-03-04T10:34:18.075Z,70.3
2019-03-04T10:35:07.890Z,70
2019-03-04T10:35:57.648Z,69.9
2019-03-04T10:36:48.254Z,70.1
2019-03-04T10:37:38.307Z,70.2
2019-03-04T10:38:28.086Z,70.3
2019-03-04T10:39:24.090Z,70.4
2019-03-04T10:40:07.955Z,70.3
2019-03-04T10:41:00.229Z,70.3
2019-03-04T10:41:47.774Z,70.2
2019-03-04T10:42:38.407Z,70.2
2019-03-04T10:43:28.450Z,70.2
2019-03-04T10:44:18.787Z,70.3
2019-03-04T10:45:08.285Z,70.4
2019-03-04T10:45:58.907Z,70.4
2019-03-04T10:46:48.422Z,70.1
2019-03-04T10:47:39.002Z,69.8
2019-03-04T10:48:28.790Z,69.6
2019-03-04T10:49:19.136Z,69.8
2019-03-04T10:50:09.188Z,70.1
2019-03-04T10:50:58.974Z,70.4
2019-03-04T10:51:49.094Z,70.8
2019-03-04T10:52:39.365Z,71.3
2019-03-04T10:53:29.427Z,71.3
2019-03-04T10:54:19.484Z,71.4
2019-03-04T10:55:09.550Z,71.5
2019-03-04T10:55:59.336Z,71.6
2019-03-04T10:56:49.379Z,71.9
2019-03-04T10:57:39.711Z,71.8
2019-03-04T10:58:29.491Z,71.6
2019-03-04T10:59:19.818Z,71.5
2019-03-04T11:00:09.691Z,71.3
2019-03-04T11:00:59.714Z,71.1
2019-03-04T11:01:52.202Z,71
2019-03-04T11:02:39.498Z,70.9
2019-03-04T11:03:30.121Z,70.8
2019-03-04T11:04:19.355Z,70.7
2019-03-04T11:05:09.940Z,71
2019-03-04T11:06:00.016Z,71.3
2019-03-04T11:06:50.080Z,71.4
2019-03-04T11:07:40.213Z,71.3
2019-03-04T11:08:30.238Z,71.1
2019-03-04T11:09:20.046Z,71.3
2019-03-04T11:10:10.099Z,71.4
2019-03-04T11:11:00.396Z,71.4
2019-03-04T11:11:50.695Z,71.4
2019-03-04T11:12:40.768Z,71.3
2019-03-04T11:13:30.825Z,71.1
2019-03-04T11:14:20.609Z,70.7
2019-03-04T11:15:10.660Z,70.4
2019-03-04T11:16:00.719Z,70.4
2019-03-04T11:16:51.075Z,70.7
2019-03-04T11:17:40.550Z,70.8
2019-03-04T11:18:30.897Z,70.8
2019-03-04T11:19:21.237Z,70.5
2019-03-04T11:20:11.002Z,70.3
2019-03-04T11:21:01.078Z,70.3
2019-03-04T11:21:50.857Z,70.3
2019-03-04T11:22:40.907Z,70.4
2019-03-04T11:23:31.523Z,70.4
2019-03-04T11:24:21.585Z,70.2
2019-03-04T11:25:11.634Z,70.2
2019-03-04T11:26:01.421Z,70.4
2019-03-04T11:26:51.747Z,70.6
2019-03-04T11:27:41.537Z,70.7
2019-03-04T11:28:31.866Z,70.5
2019-03-04T11:29:21.935Z,70.4
2019-03-04T11:30:11.984Z,70.5
2019-03-04T11:31:01.773Z,70.1
2019-03-04T11:31:51.844Z,69.9
2019-03-04T11:32:41.922Z,69.9
2019-03-04T11:33:32.204Z,69.8
2019-03-04T11:34:21.784Z,69.8
2019-03-04T11:35:11.780Z,69.8
2019-03-04T11:36:02.458Z,69.7
2019-03-04T11:36:51.897Z,69.7
2019-03-04T11:37:42.516Z,69.8
2019-03-04T11:38:32.284Z,69.9
2019-03-04T11:39:22.622Z,69.8
2019-03-04T11:40:12.671Z,69.6
2019-03-04T11:41:02.734Z,69.3
2019-03-04T11:41:52.519Z,69.1
2019-03-04T11:42:42.856Z,68.8
2019-03-04T11:43:32.087Z,68.8
2019-03-04T11:44:22.976Z,69.1
2019-03-04T11:45:12.760Z,69.1
2019-03-04T11:46:03.100Z,69.1
2019-03-04T11:46:53.155Z,69.3
2019-03-04T11:47:43.211Z,69.3
2019-03-04T11:48:33.261Z,69.4
2019-03-04T11:49:23.092Z,69.7
2019-03-04T11:50:12.606Z,69.8
2019-03-04T11:51:03.191Z,69.6
2019-03-04T11:51:53.221Z,69.3
2019-03-04T11:52:43.281Z,69.3
2019-03-04T11:53:33.341Z,69.3
2019-03-04T11:54:23.671Z,69.2
2019-03-04T11:55:13.196Z,69.2
2019-03-04T11:56:03.806Z,69.3
2019-03-04T11:56:53.588Z,69.2
2019-03-04T11:57:43.636Z,69.1
2019-03-04T11:58:33.955Z,69.4
2019-03-04T11:59:24.098Z,69.7
2019-03-04T12:00:13.538Z,69.9
2019-03-04T12:01:04.156Z,69.8
2019-03-04T12:01:53.933Z,69.4
2019-03-04T12:02:44.257Z,69.4
2019-03-04T12:03:34.323Z,69.5
2019-03-04T12:04:24.111Z,69.5
2019-03-04T12:06:45.813Z,69.5
2019-03-04T12:07:35.857Z,69.7
2019-03-04T12:08:26.188Z,69.7
2019-03-04T12:09:15.973Z,69.4
2019-03-04T12:10:06.343Z,69.4
2019-03-04T12:10:56.343Z,69.3
2019-03-04T12:11:46.394Z,69.1
2019-03-04T12:12:36.205Z,69.1
2019-03-04T12:13:26.250Z,68.9
2019-03-04T12:14:16.292Z,68.8
2019-03-04T12:15:05.819Z,68.7
2019-03-04T12:15:56.414Z,68.7
2019-03-04T12:16:46.484Z,68.8
2019-03-04T12:17:36.269Z,68.8
2019-03-04T12:18:26.915Z,68.7
2019-03-04T12:19:16.972Z,68.6
2019-03-04T12:20:07.037Z,68.8
2019-03-04T12:20:57.039Z,68.8
2019-03-04T12:21:46.832Z,68.4
2019-03-04T12:22:36.882Z,68.2
2019-03-04T12:23:26.966Z,68
2019-03-04T12:24:17.077Z,67.8
2019-03-04T12:25:06.782Z,67.7
2019-03-04T12:25:56.852Z,67.4
2019-03-04T12:26:47.174Z,67.4
2019-03-04T12:27:37.297Z,67.4
2019-03-04T12:28:27.574Z,67.5
2019-03-04T12:29:17.645Z,67.5
2019-03-04T12:30:06.873Z,67.5
2019-03-04T12:30:57.751Z,67.6
2019-03-04T12:31:47.542Z,67.6
2019-03-04T12:32:37.859Z,67.4
2019-03-04T12:33:27.919Z,67.1
2019-03-04T12:34:27.163Z,67.1
2019-03-04T12:35:07.746Z,66.8
2019-03-04T12:35:58.099Z,66.6
2019-03-04T12:36:47.880Z,66.4
2019-03-04T12:37:38.236Z,66.3
2019-03-04T12:38:28.278Z,66.1
2019-03-04T12:39:18.070Z,65.8
2019-03-04T12:40:08.166Z,65.8
2019-03-04T12:40:58.455Z,65.7
2019-03-04T12:41:50.711Z,66.1
2019-03-04T12:42:38.585Z,66.9
2019-03-04T12:43:28.368Z,67.9
2019-03-04T12:44:18.408Z,68.8
2019-03-04T12:45:08.465Z,69.7
2019-03-04T12:45:57.970Z,70.3
2019-03-04T12:46:48.572Z,70.8
2019-03-04T12:47:38.660Z,71.1
2019-03-04T12:48:28.970Z,71.4
2019-03-04T12:49:19.028Z,71.8
2019-03-04T12:50:08.597Z,72.3
2019-03-04T12:50:58.883Z,72.7
2019-03-04T12:51:48.654Z,73.2
2019-03-04T12:52:38.712Z,74.2
2019-03-04T12:53:39.367Z,75.3
2019-03-04T12:54:19.385Z,73.2
2019-03-04T12:55:09.172Z,71.9
2019-03-04T12:55:59.237Z,68.9
2019-03-04T12:56:49.562Z,65.1
2019-03-04T12:57:39.623Z,62.8
2019-03-04T12:58:29.137Z,62.1
2019-03-04T12:59:18.709Z,62.1
2019-03-04T13:00:09.337Z,62.6
2019-03-04T13:00:59.861Z,62.9
2019-03-04T13:01:49.917Z,63.4
2019-03-04T13:02:39.696Z,64.1
2019-03-04T13:03:29.484Z,64.8
2019-03-04T13:04:19.826Z,65.2
2019-03-04T13:05:09.876Z,65.5
2019-03-04T13:05:59.936Z,65.9
2019-03-04T13:06:50.264Z,66.6
2019-03-04T13:07:40.324Z,67.2
2019-03-04T13:08:30.389Z,67.6
2019-03-04T13:09:20.481Z,67.9
2019-03-04T13:10:09.959Z,67.9
2019-03-04T13:11:00.571Z,68.1
2019-03-04T13:11:50.373Z,68.5
2019-03-04T13:12:40.670Z,68.9
2019-03-04T13:13:30.209Z,69.1
2019-03-04T13:14:20.528Z,69.4
2019-03-04T13:15:10.313Z,69.8
2019-03-04T13:16:00.091Z,70.1
2019-03-04T13:16:50.974Z,70.3
2019-03-04T13:17:41.053Z,70.4
2019-03-04T13:18:31.096Z,70.3
2019-03-04T13:19:20.861Z,70.3
2019-03-04T13:20:10.938Z,70.3
2019-03-04T13:21:01.269Z,70.3
2019-03-04T13:21:51.098Z,70.3
2019-03-04T13:22:41.163Z,70.3
2019-03-04T13:23:31.160Z,70.1
2019-03-04T13:24:21.556Z,70.1
2019-03-04T13:25:11.320Z,70.2
2019-03-04T13:26:01.621Z,70.2
2019-03-04T13:26:51.390Z,70.2
2019-03-04T13:27:41.443Z,69.9
2019-03-04T13:28:31.520Z,69.9
2019-03-04T13:29:21.860Z,69.8
2019-03-04T13:30:11.663Z,69.6
2019-03-04T13:31:51.556Z,69.3
2019-03-04T13:32:41.831Z,69.1
2019-03-04T13:33:32.147Z,69.1
2019-03-04T13:34:21.245Z,69
2019-03-04T13:35:11.993Z,68.9
2019-03-04T13:36:01.775Z,68.6
2019-03-04T13:36:51.917Z,68.5
2019-03-04T13:37:41.973Z,68.3
2019-03-04T13:38:32.012Z,68.3
2019-03-04T13:39:22.094Z,68.1
2019-03-04T13:40:11.860Z,67.9
2019-03-04T13:41:01.645Z,67.6
2019-03-04T13:41:52.270Z,67.4
2019-03-04T13:42:42.354Z,67.1
2019-03-04T13:43:31.835Z,66.9
2019-03-04T13:44:22.437Z,66.8
2019-03-04T13:45:12.012Z,66.8
2019-03-04T13:46:02.277Z,66.8
2019-03-04T13:46:52.642Z,66.4
2019-03-04T13:47:43.217Z,66.1
2019-03-04T13:48:32.729Z,65.9
2019-03-04T13:49:22.240Z,65.6
2019-03-04T13:50:13.334Z,65.3
2019-03-04T13:51:03.415Z,65.1
2019-03-04T13:51:52.707Z,64.8
2019-03-04T13:52:43.509Z,64.7
2019-03-04T13:53:33.024Z,64.6
2019-03-04T13:54:23.339Z,64.3
2019-03-04T13:55:13.693Z,63.9
2019-03-04T13:56:02.731Z,63.6
2019-03-04T13:56:53.822Z,63.4
2019-03-04T13:57:43.317Z,63.2
2019-03-04T13:58:33.918Z,63
2019-03-04T13:59:23.996Z,62.8
2019-03-04T14:00:13.772Z,62.4
2019-03-04T14:01:04.096Z,62.1
2019-03-04T14:01:54.193Z,61.9
2019-03-04T14:02:43.947Z,61.6
2019-03-04T14:03:33.736Z,61.4
2019-03-04T14:04:24.357Z,61.3
2019-03-04T14:05:14.456Z,61.1
2019-03-04T16:07:45.864Z,22.1
2019-03-04T16:08:35.647Z,21.8
2019-03-04T16:09:25.237Z,21.6
2019-03-04T16:10:14.755Z,21.4
2019-03-04T16:11:05.549Z,21.2
2019-03-04T16:11:55.596Z,21.1
2019-03-04T16:12:46.204Z,20.9
2019-03-04T16:13:35.517Z,20.7
2019-03-04T16:14:26.082Z,20.4
2019-03-04T16:15:15.909Z,20.3
2019-03-04T16:16:05.691Z,20.2
2019-03-04T16:16:56.237Z,20
2019-03-04T16:17:45.551Z,19.8
2019-03-04T16:18:36.612Z,19.6